Time;durP1;ratioP1;P1;durP2;ratioP2;P2;SDS_P1;SDS_P2;PMS_P1;PMS_P2;Temp;Humidity;BMP_temperature;BMP_pressure;BME280_temperature;BME280_humidity;BME280_pressure;Samples;Min_cycle;Max_cycle;Signal;HPM_P1;HPM_P2
2023/05/17 00:00:52;;;;;;;2.30;1.50;;;;;;;;;;772218;179;919044;-68
2023/05/17 00:03:18;;;;;;;4.40;2.10;;;;;;;;;;771069;179;919247;-70
2023/05/17 00:05:43;;;;;;;2.20;1.30;;;;;;;;;;777928;179;913794;-71
2023/05/17 00:08:10;;;;;;;2.37;1.40;;;;;;;;;;770149;179;815836;-67
2023/05/17 00:10:35;;;;;;;4.20;2.47;;;;;;;;;;771149;179;813976;-69
2023/05/17 00:13:01;;;;;;;3.70;2.50;;;;;;;;;;771207;179;915669;-68
2023/05/17 00:15:27;;;;;;;3.97;1.90;;;;;;;;;;774531;179;893067;-72
2023/05/17 00:17:53;;;;;;;2.83;1.70;;;;;;;;;;771696;179;819013;-72
2023/05/17 00:20:18;;;;;;;3.12;1.98;;;;;;;;;;769841;179;916513;-68
2023/05/17 00:22:46;;;;;;;3.63;1.70;;;;;;;;;;765389;183;917691;-71
2023/05/17 00:25:10;;;;;;;5.23;2.13;;;;;;;;;;771157;179;917747;-67
2023/05/17 00:27:36;;;;;;;3.10;1.97;;;;;;;;;;771493;179;918726;-68
2023/05/17 00:30:02;;;;;;;2.77;1.93;;;;;;;;;;775087;178;914926;-73
2023/05/17 00:32:28;;;;;;;1.93;1.30;;;;;;;;;;772194;179;919647;-70
2023/05/17 00:34:54;;;;;;;3.90;2.30;;;;;;;;;;755125;183;918857;-67
2023/05/17 00:37:19;;;;;;;3.47;1.90;;;;;;;;;;767959;178;820299;-69
2023/05/17 00:39:45;;;;;;;2.90;2.03;;;;;;;;;;768860;181;918376;-70
2023/05/17 00:42:11;;;;;;;3.17;2.53;;;;;;;;;;755989;182;908350;-71
2023/05/17 00:44:37;;;;;;;3.10;2.10;;;;;;;;;;770605;179;917403;-67
2023/05/17 00:47:03;;;;;;;4.60;2.10;;;;;;;;;;775923;179;887237;-71
2023/05/17 00:49:29;;;;;;;2.83;1.97;;;;;;;;;;770774;177;919146;-66
2023/05/17 00:51:55;;;;;;;4.03;2.40;;;;;;;;;;773784;178;918168;-67
2023/05/17 00:54:20;;;;;;;2.40;1.60;;;;;;;;;;778718;179;920180;-73
2023/05/17 00:56:46;;;;;;;2.70;1.73;;;;;;;;;;772904;179;966395;-72
2023/05/17 00:59:12;;;;;;;2.83;1.80;;;;;;;;;;772539;180;918958;-67
2023/05/17 01:01:38;;;;;;;4.43;2.33;;;;;;;;;;766966;181;911066;-67
2023/05/17 01:04:04;;;;;;;2.93;1.77;;;;;;;;;;774221;179;819147;-67
2023/05/17 01:06:30;;;;;;;3.33;2.13;;;;;;;;;;773626;178;918656;-67
2023/05/17 01:08:55;;;;;;;4.90;2.63;;;;;;;;;;772940;179;918176;-72
2023/05/17 01:11:23;;;;;;;4.97;2.30;;;;;;;;;;774277;181;918932;-73
2023/05/17 01:13:55;;;;;;;3.00;2.40;;;;;;;;;;771015;179;918844;-73
2023/05/17 01:16:24;;;;;;;2.27;1.30;;;;;;;;;;770490;179;919465;-66
2023/05/17 01:19:00;;;;;;;2.70;1.87;;;;;;;;;;769567;179;935091;-72
2023/05/17 01:21:32;;;;;;;2.80;1.40;;;;;;;;;;773382;177;919939;-73
2023/05/17 01:23:58;;;;;;;2.77;1.60;;;;;;;;;;772971;181;920217;-66
2023/05/17 01:26:28;;;;;;;3.23;2.20;;;;;;;;;;769340;178;921649;-74
2023/05/17 01:28:54;;;;;;;2.73;1.70;;;;;;;;;;762139;180;915877;-66
2023/05/17 01:31:20;;;;;;;3.30;2.10;;;;;;;;;;770253;180;918436;-72
2023/05/17 01:33:46;;;;;;;3.47;2.40;;;;;;;;;;768850;178;835815;-66
2023/05/17 01:36:12;;;;;;;5.97;2.40;;;;;;;;;;770868;179;919065;-67
2023/05/17 01:38:38;;;;;;;2.90;2.08;;;;;;;;;;777891;179;816693;-72
2023/05/17 01:41:05;;;;;;;3.10;1.80;;;;;;;;;;770472;181;921952;-66
2023/05/17 01:43:39;;;;;;;2.53;1.50;;;;;;;;;;771293;179;918568;-66
2023/05/17 01:46:08;;;;;;;5.93;2.73;;;;;;;;;;770554;179;917181;-67
2023/05/17 01:48:34;;;;;;;4.50;2.67;;;;;;;;;;779200;179;851962;-72
2023/05/17 01:50:59;;;;;;;3.50;2.50;;;;;;;;;;773584;179;919310;-72
2023/05/17 01:53:28;;;;;;;2.92;2.20;;;;;;;;;;771265;179;921286;-73
2023/05/17 01:55:55;;;;;;;3.40;2.43;;;;;;;;;;769254;179;919158;-68
2023/05/17 01:58:21;;;;;;;3.90;2.10;;;;;;;;;;774924;179;919120;-72
2023/05/17 02:00:47;;;;;;;2.93;2.13;;;;;;;;;;771390;179;917620;-73
2023/05/17 02:03:13;;;;;;;4.23;2.43;;;;;;;;;;773179;178;930219;-67
2023/05/17 02:05:38;;;;;;;5.30;3.47;;;;;;;;;;779382;179;920190;-68
2023/05/17 02:08:05;;;;;;;3.80;2.67;;;;;;;;;;773807;180;818600;-67
2023/05/17 02:10:30;;;;;;;3.80;3.33;;;;;;;;;;771667;179;918545;-73
2023/05/17 02:12:56;;;;;;;5.70;3.80;;;;;;;;;;762296;181;855771;-71
2023/05/17 02:15:22;;;;;;;5.70;3.73;;;;;;;;;;779407;181;915106;-73
2023/05/17 02:17:48;;;;;;;4.50;2.83;;;;;;;;;;763827;178;918332;-65
2023/05/17 02:20:14;;;;;;;5.17;3.40;;;;;;;;;;763434;181;918460;-72
2023/05/17 02:22:40;;;;;;;5.90;3.80;;;;;;;;;;776179;179;918952;-66
2023/05/17 02:25:06;;;;;;;5.70;3.90;;;;;;;;;;772451;179;918242;-72
2023/05/17 02:27:32;;;;;;;5.50;3.80;;;;;;;;;;772533;179;919296;-65
2023/05/17 02:29:58;;;;;;;4.10;3.10;;;;;;;;;;776287;179;920801;-72
2023/05/17 02:32:24;;;;;;;7.00;4.20;;;;;;;;;;770646;180;918644;-73
2023/05/17 02:34:49;;;;;;;6.40;4.35;;;;;;;;;;772419;179;921900;-72
2023/05/17 02:37:15;;;;;;;4.83;2.87;;;;;;;;;;775863;179;919353;-66
2023/05/17 02:39:41;;;;;;;5.53;4.00;;;;;;;;;;771551;179;918863;-67
2023/05/17 02:42:07;;;;;;;6.20;4.70;;;;;;;;;;771262;179;940758;-67
2023/05/17 02:44:33;;;;;;;9.23;4.90;;;;;;;;;;771557;179;908046;-73
2023/05/17 02:46:59;;;;;;;5.00;4.00;;;;;;;;;;765451;182;911571;-66
2023/05/17 02:49:24;;;;;;;7.47;6.03;;;;;;;;;;769547;180;817384;-72
2023/05/17 02:51:50;;;;;;;5.10;3.90;;;;;;;;;;773318;179;914168;-67
2023/05/17 02:54:16;;;;;;;8.03;5.50;;;;;;;;;;776748;179;917596;-67
2023/05/17 02:56:42;;;;;;;6.37;4.80;;;;;;;;;;757743;184;918040;-72
2023/05/17 02:59:08;;;;;;;4.85;3.15;;;;;;;;;;765491;180;920391;-67
2023/05/17 03:01:34;;;;;;;10.87;4.50;;;;;;;;;;776011;179;815959;-70
2023/05/17 03:03:59;;;;;;;5.10;4.40;;;;;;;;;;770701;179;919104;-71
2023/05/17 03:06:25;;;;;;;6.47;4.70;;;;;;;;;;770477;179;924352;-65
2023/05/17 03:08:51;;;;;;;6.20;4.43;;;;;;;;;;773153;179;903474;-72
2023/05/17 03:11:17;;;;;;;8.70;3.97;;;;;;;;;;774055;181;816724;-70
2023/05/17 03:13:45;;;;;;;5.70;3.67;;;;;;;;;;772624;179;919167;-66
2023/05/17 03:16:09;;;;;;;7.03;4.90;;;;;;;;;;773524;179;814575;-70
2023/05/17 03:18:35;;;;;;;7.70;4.63;;;;;;;;;;779063;179;817006;-67
2023/05/17 03:21:00;;;;;;;4.77;3.60;;;;;;;;;;774487;177;917372;-74
2023/05/17 03:23:26;;;;;;;7.57;4.30;;;;;;;;;;760927;180;915283;-74
2023/05/17 03:25:52;;;;;;;4.23;3.50;;;;;;;;;;764655;182;920135;-73
2023/05/17 03:28:18;;;;;;;10.90;6.20;;;;;;;;;;755416;184;816538;-74
2023/05/17 03:30:44;;;;;;;6.70;4.47;;;;;;;;;;759930;182;840226;-74
2023/05/17 03:33:10;;;;;;;5.67;5.07;;;;;;;;;;762567;179;816475;-74
2023/05/17 03:35:36;;;;;;;7.03;4.00;;;;;;;;;;774712;179;1035431;-74
2023/05/17 03:38:01;;;;;;;6.33;3.53;;;;;;;;;;749355;184;932834;-74
2023/05/17 03:40:27;;;;;;;7.53;4.30;;;;;;;;;;752940;181;1023043;-74
2023/05/17 03:42:53;;;;;;;6.70;5.10;;;;;;;;;;786297;179;919203;-74
2023/05/17 03:45:19;;;;;;;5.57;4.17;;;;;;;;;;761466;182;918994;-74
2023/05/17 03:47:45;;;;;;;7.57;4.17;;;;;;;;;;772826;179;919897;-74
2023/05/17 03:50:11;;;;;;;7.57;3.80;;;;;;;;;;748844;183;919060;-77
2023/05/17 03:52:36;;;;;;;8.70;4.57;;;;;;;;;;743037;186;903997;-73
2023/05/17 03:55:02;;;;;;;5.40;3.83;;;;;;;;;;751964;180;920693;-69
2023/05/17 03:57:29;;;;;;;5.47;3.87;;;;;;;;;;761693;182;817106;-78
2023/05/17 03:59:55;;;;;;;9.87;6.23;;;;;;;;;;758062;181;997953;-76
2023/05/17 04:02:21;;;;;;;9.13;4.60;;;;;;;;;;758247;183;920133;-76
2023/05/17 04:04:47;;;;;;;8.10;4.90;;;;;;;;;;757069;180;824014;-69
2023/05/17 04:07:13;;;;;;;7.00;3.87;;;;;;;;;;756876;185;916763;-68
2023/05/17 04:09:39;;;;;;;9.83;6.10;;;;;;;;;;756585;180;921091;-74
2023/05/17 04:12:05;;;;;;;8.20;5.00;;;;;;;;;;756501;181;918794;-72
2023/05/17 04:14:31;;;;;;;7.10;4.13;;;;;;;;;;764651;183;711204;-76
2023/05/17 04:16:57;;;;;;;7.37;5.77;;;;;;;;;;760763;180;636189;-68
2023/05/17 04:19:23;;;;;;;10.50;5.35;;;;;;;;;;757986;180;918706;-72
2023/05/17 04:21:50;;;;;;;10.90;6.20;;;;;;;;;;762349;180;916901;-67
2023/05/17 04:24:14;;;;;;;6.17;4.33;;;;;;;;;;758412;181;918687;-68
2023/05/17 04:26:41;;;;;;;8.10;5.50;;;;;;;;;;760757;179;909771;-75
2023/05/17 04:29:06;;;;;;;19.10;4.87;;;;;;;;;;760412;180;866920;-73
2023/05/17 04:31:32;;;;;;;8.20;5.20;;;;;;;;;;765186;182;917698;-68
2023/05/17 04:33:58;;;;;;;9.17;5.73;;;;;;;;;;761696;180;632756;-68
2023/05/17 04:36:25;;;;;;;7.23;4.80;;;;;;;;;;761045;181;635895;-76
2023/05/17 04:38:51;;;;;;;5.67;4.17;;;;;;;;;;762348;180;918830;-68
2023/05/17 04:41:16;;;;;;;6.40;4.17;;;;;;;;;;758693;180;915556;-73
2023/05/17 04:43:42;;;;;;;5.20;3.37;;;;;;;;;;756064;180;1021356;-66
2023/05/17 04:46:08;;;;;;;7.50;5.10;;;;;;;;;;762106;180;914302;-66
2023/05/17 04:48:34;;;;;;;6.05;3.67;;;;;;;;;;759687;180;915076;-72
2023/05/17 04:51:01;;;;;;;7.20;5.47;;;;;;;;;;757283;181;920213;-70
2023/05/17 04:53:26;;;;;;;7.13;4.23;;;;;;;;;;761467;180;943595;-66
2023/05/17 04:55:52;;;;;;;5.30;3.50;;;;;;;;;;757252;180;920306;-71
2023/05/17 04:58:18;;;;;;;6.07;4.30;;;;;;;;;;754852;181;949614;-66
2023/05/17 05:00:44;;;;;;;9.20;3.40;;;;;;;;;;755423;180;921882;-67
2023/05/17 05:03:10;;;;;;;4.67;3.70;;;;;;;;;;762372;180;915706;-67
2023/05/17 05:05:36;;;;;;;7.43;4.07;;;;;;;;;;757695;180;816046;-67
2023/05/17 05:08:02;;;;;;;5.00;3.97;;;;;;;;;;755365;180;919252;-72
2023/05/17 05:10:27;;;;;;;5.95;4.20;;;;;;;;;;761834;180;907864;-66
2023/05/17 05:12:53;;;;;;;7.73;5.53;;;;;;;;;;757065;180;964334;-65
2023/05/17 05:15:19;;;;;;;6.83;3.30;;;;;;;;;;758088;180;918710;-65
2023/05/17 05:17:45;;;;;;;9.80;4.30;;;;;;;;;;760838;180;920526;-73
2023/05/17 05:20:11;;;;;;;5.00;4.17;;;;;;;;;;756496;180;920772;-66
2023/05/17 05:22:37;;;;;;;7.20;4.70;;;;;;;;;;756481;180;924536;-74
2023/05/17 05:25:03;;;;;;;6.17;5.07;;;;;;;;;;756477;181;917922;-66
2023/05/17 05:27:29;;;;;;;12.10;4.40;;;;;;;;;;760461;183;636811;-65
2023/05/17 05:29:55;;;;;;;10.73;3.73;;;;;;;;;;759579;181;757456;-71
2023/05/17 05:32:20;;;;;;;6.12;3.92;;;;;;;;;;756872;180;922204;-65
2023/05/17 05:34:47;;;;;;;4.77;2.47;;;;;;;;;;761899;183;918940;-70
2023/05/17 05:37:13;;;;;;;6.93;4.57;;;;;;;;;;758893;179;926502;-65
2023/05/17 05:39:38;;;;;;;9.25;5.30;;;;;;;;;;758646;180;918668;-66
2023/05/17 05:42:04;;;;;;;8.77;5.70;;;;;;;;;;761674;180;919029;-64
2023/05/17 05:44:30;;;;;;;5.00;3.33;;;;;;;;;;758327;180;936868;-70
2023/05/17 05:46:56;;;;;;;3.93;2.70;;;;;;;;;;758269;180;915742;-70
2023/05/17 05:49:22;;;;;;;7.60;4.40;;;;;;;;;;759655;180;963287;-69
2023/05/17 05:51:48;;;;;;;6.30;3.10;;;;;;;;;;759161;180;918854;-65
2023/05/17 05:54:14;;;;;;;9.30;5.20;;;;;;;;;;756009;181;920542;-69
2023/05/17 05:56:40;;;;;;;10.40;4.30;;;;;;;;;;756945;180;914352;-69
2023/05/17 05:59:05;;;;;;;6.90;3.10;;;;;;;;;;761828;181;918648;-64
2023/05/17 06:01:32;;;;;;;10.93;6.17;;;;;;;;;;758489;180;917992;-70
2023/05/17 06:03:58;;;;;;;4.57;3.53;;;;;;;;;;758820;180;918548;-70
2023/05/17 06:06:23;;;;;;;7.53;3.93;;;;;;;;;;762172;180;846370;-69
2023/05/17 06:08:49;;;;;;;12.33;5.10;;;;;;;;;;757906;180;920717;-71
2023/05/17 06:11:17;;;;;;;13.27;3.80;;;;;;;;;;759029;180;918131;-65
2023/05/17 06:13:41;;;;;;;8.03;5.30;;;;;;;;;;761016;181;918465;-72
2023/05/17 06:16:07;;;;;;;7.80;4.10;;;;;;;;;;756568;180;919062;-70
2023/05/17 06:18:33;;;;;;;5.97;4.03;;;;;;;;;;757472;180;919367;-66
2023/05/17 06:20:59;;;;;;;5.40;3.83;;;;;;;;;;756736;180;915475;-70
2023/05/17 06:23:25;;;;;;;6.20;4.00;;;;;;;;;;758805;181;816853;-70
2023/05/17 06:25:51;;;;;;;4.77;3.20;;;;;;;;;;755613;180;919186;-65
2023/05/17 06:28:16;;;;;;;4.40;3.13;;;;;;;;;;755817;180;918159;-71
2023/05/17 06:30:42;;;;;;;8.40;4.93;;;;;;;;;;760512;180;923008;-65
2023/05/17 06:33:08;;;;;;;10.13;4.43;;;;;;;;;;757784;181;920048;-70
2023/05/17 06:35:34;;;;;;;7.50;4.20;;;;;;;;;;757304;180;924994;-65
2023/05/17 06:38:00;;;;;;;4.50;2.60;;;;;;;;;;761114;180;918994;-65
2023/05/17 06:40:25;;;;;;;13.33;4.07;;;;;;;;;;757014;180;919532;-65
2023/05/17 06:42:51;;;;;;;8.50;3.60;;;;;;;;;;758036;180;820630;-64
2023/05/17 06:45:17;;;;;;;5.77;5.03;;;;;;;;;;761088;180;921036;-64
2023/05/17 06:47:43;;;;;;;4.43;3.20;;;;;;;;;;756971;180;1021330;-71
2023/05/17 06:50:09;;;;;;;8.83;4.60;;;;;;;;;;759667;179;918001;-65
2023/05/17 06:52:35;;;;;;;6.43;3.90;;;;;;;;;;757914;182;821136;-66
2023/05/17 06:55:01;;;;;;;12.43;3.60;;;;;;;;;;763525;180;913977;-65
2023/05/17 06:57:26;;;;;;;12.80;3.80;;;;;;;;;;758870;180;920260;-65
2023/05/17 06:59:52;;;;;;;12.07;4.00;;;;;;;;;;757504;180;918765;-64
2023/05/17 07:02:18;;;;;;;7.67;4.30;;;;;;;;;;763448;180;919091;-64
2023/05/17 07:04:44;;;;;;;6.23;3.67;;;;;;;;;;760463;180;910267;-70
2023/05/17 07:07:10;;;;;;;6.30;3.33;;;;;;;;;;759553;180;817271;-72
2023/05/17 07:09:36;;;;;;;5.27;3.10;;;;;;;;;;763680;180;865527;-69
2023/05/17 07:12:02;;;;;;;9.50;3.20;;;;;;;;;;757128;180;919568;-64
2023/05/17 07:14:28;;;;;;;5.03;3.10;;;;;;;;;;757071;180;919692;-70
2023/05/17 07:16:54;;;;;;;12.25;4.57;;;;;;;;;;759758;180;920732;-65
2023/05/17 07:19:20;;;;;;;6.00;3.00;;;;;;;;;;757605;184;921086;-65
2023/05/17 07:21:46;;;;;;;8.73;3.43;;;;;;;;;;758916;180;887545;-69
2023/05/17 07:24:11;;;;;;;9.87;2.60;;;;;;;;;;757555;180;818214;-69
2023/05/17 07:26:37;;;;;;;5.43;2.43;;;;;;;;;;761821;180;918537;-64
2023/05/17 07:29:03;;;;;;;4.40;3.27;;;;;;;;;;757854;180;931238;-64
2023/05/17 07:31:29;;;;;;;6.20;2.47;;;;;;;;;;758677;183;917791;-68
2023/05/17 07:33:55;;;;;;;6.87;3.50;;;;;;;;;;761276;180;917073;-68
2023/05/17 07:36:21;;;;;;;3.57;2.53;;;;;;;;;;756890;180;913271;-64
2023/05/17 07:38:46;;;;;;;4.90;2.40;;;;;;;;;;756045;181;912874;-64
2023/05/17 07:41:15;;;;;;;7.13;3.77;;;;;;;;;;761710;180;915198;-68
2023/05/17 07:43:38;;;;;;;6.60;4.10;;;;;;;;;;752698;185;922484;-68
2023/05/17 07:46:04;;;;;;;6.50;4.00;;;;;;;;;;756683;180;903096;-64
2023/05/17 07:48:30;;;;;;;4.57;3.50;;;;;;;;;;756068;180;919805;-70
2023/05/17 07:50:56;;;;;;;4.43;1.53;;;;;;;;;;759014;183;919794;-69
2023/05/17 07:53:21;;;;;;;4.87;1.90;;;;;;;;;;757560;180;918734;-70
2023/05/17 07:55:47;;;;;;;4.70;2.30;;;;;;;;;;756230;181;918167;-65
2023/05/17 07:58:13;;;;;;;9.60;3.60;;;;;;;;;;762655;180;919090;-64
2023/05/17 08:00:41;;;;;;;5.17;3.13;;;;;;;;;;760328;181;894059;-69
2023/05/17 08:03:06;;;;;;;13.13;5.07;;;;;;;;;;758734;180;915645;-64
2023/05/17 08:05:31;;;;;;;4.30;3.43;;;;;;;;;;764617;180;821326;-69
2023/05/17 08:07:59;;;;;;;6.87;3.60;;;;;;;;;;758503;180;817096;-68
2023/05/17 08:10:23;;;;;;;5.17;3.30;;;;;;;;;;757984;180;919299;-69
2023/05/17 08:12:49;;;;;;;5.30;3.30;;;;;;;;;;758935;180;919766;-69
2023/05/17 08:15:15;;;;;;;9.03;4.33;;;;;;;;;;764101;177;916912;-65
2023/05/17 08:17:41;;;;;;;9.73;4.30;;;;;;;;;;758308;180;816412;-68
2023/05/17 08:20:07;;;;;;;9.93;5.73;;;;;;;;;;757376;180;891643;-68
2023/05/17 08:22:33;;;;;;;5.90;4.07;;;;;;;;;;761317;181;919113;-69
2023/05/17 08:24:59;;;;;;;6.70;2.93;;;;;;;;;;757623;180;920209;-64
2023/05/17 08:27:25;;;;;;;6.13;3.33;;;;;;;;;;759366;180;914511;-63
2023/05/17 08:29:52;;;;;;;7.13;3.57;;;;;;;;;;762325;180;920361;-64
2023/05/17 08:32:16;;;;;;;10.60;6.20;;;;;;;;;;757418;180;921662;-64
2023/05/17 08:34:42;;;;;;;10.00;4.90;;;;;;;;;;757612;180;963489;-69
2023/05/17 08:37:08;;;;;;;12.60;3.97;;;;;;;;;;760906;180;919276;-68
2023/05/17 08:39:34;;;;;;;12.83;3.53;;;;;;;;;;755964;180;918444;-64
2023/05/17 08:42:01;;;;;;;8.63;3.37;;;;;;;;;;756260;181;926855;-63
2023/05/17 08:44:26;;;;;;;6.80;3.57;;;;;;;;;;756790;180;820844;-68
2023/05/17 08:46:52;;;;;;;11.60;5.00;;;;;;;;;;762427;180;913525;-68
2023/05/17 08:49:17;;;;;;;13.10;4.30;;;;;;;;;;756963;180;919363;-69
2023/05/17 08:51:43;;;;;;;11.73;8.90;;;;;;;;;;757074;180;918480;-64
2023/05/17 08:54:09;;;;;;;10.30;3.60;;;;;;;;;;762891;180;923110;-64
2023/05/17 08:56:35;;;;;;;7.23;3.77;;;;;;;;;;757282;180;914664;-64
2023/05/17 08:59:01;;;;;;;6.17;3.77;;;;;;;;;;758086;180;917082;-67
2023/05/17 09:01:28;;;;;;;6.27;2.20;;;;;;;;;;762909;181;816771;-63
2023/05/17 09:03:53;;;;;;;5.10;2.27;;;;;;;;;;758560;180;854844;-66
2023/05/17 09:06:20;;;;;;;6.90;2.50;;;;;;;;;;755613;181;922992;-64
2023/05/17 09:08:45;;;;;;;11.73;3.00;;;;;;;;;;755624;180;919906;-67
2023/05/17 09:11:11;;;;;;;8.13;4.80;;;;;;;;;;759664;183;918788;-68
2023/05/17 09:13:37;;;;;;;8.50;2.90;;;;;;;;;;758739;181;919950;-69
2023/05/17 09:16:03;;;;;;;3.20;1.93;;;;;;;;;;756780;182;918678;-69
2023/05/17 09:18:30;;;;;;;5.33;3.20;;;;;;;;;;763498;180;884009;-68
2023/05/17 09:20:55;;;;;;;5.10;2.30;;;;;;;;;;758037;180;918360;-63
2023/05/17 09:23:21;;;;;;;9.43;2.93;;;;;;;;;;757474;180;920538;-64
2023/05/17 09:25:47;;;;;;;7.90;2.83;;;;;;;;;;761552;181;922910;-68
2023/05/17 09:28:12;;;;;;;4.57;2.60;;;;;;;;;;758265;180;918921;-63
2023/05/17 09:30:38;;;;;;;4.77;3.03;;;;;;;;;;757372;180;913452;-68
2023/05/17 09:33:04;;;;;;;35.30;16.97;;;;;;;;;;761623;180;910453;-64
2023/05/17 09:35:30;;;;;;;6.68;4.37;;;;;;;;;;758129;180;919525;-68
2023/05/17 09:37:55;;;;;;;8.93;3.07;;;;;;;;;;756828;180;914602;-64
2023/05/17 09:40:23;;;;;;;6.40;2.85;;;;;;;;;;757358;180;883526;-64
2023/05/17 09:42:48;;;;;;;9.40;2.77;;;;;;;;;;760824;180;915697;-68
2023/05/17 09:45:15;;;;;;;8.57;2.73;;;;;;;;;;757045;182;917788;-63
2023/05/17 09:47:40;;;;;;;8.33;2.73;;;;;;;;;;759278;180;819022;-70
2023/05/17 09:50:07;;;;;;;10.70;1.97;;;;;;;;;;761068;180;933626;-69
2023/05/17 09:52:33;;;;;;;6.77;2.30;;;;;;;;;;758691;180;919664;-69
2023/05/17 09:54:57;;;;;;;7.20;2.93;;;;;;;;;;756238;181;919101;-65
2023/05/17 09:57:24;;;;;;;9.33;2.93;;;;;;;;;;762553;180;903749;-69
2023/05/17 09:59:50;;;;;;;10.10;3.50;;;;;;;;;;755363;180;921729;-69
2023/05/17 10:02:20;;;;;;;6.10;2.50;;;;;;;;;;755314;180;906126;-68
2023/05/17 10:04:46;;;;;;;5.20;2.70;;;;;;;;;;754529;181;1021120;-64
2023/05/17 10:07:11;;;;;;;8.70;3.33;;;;;;;;;;761936;183;917624;-68
2023/05/17 10:09:37;;;;;;;7.03;2.50;;;;;;;;;;758669;180;919223;-68
2023/05/17 10:12:04;;;;;;;5.27;2.53;;;;;;;;;;755666;183;920460;-64
2023/05/17 10:14:30;;;;;;;4.03;1.90;;;;;;;;;;761677;180;1017214;-64
2023/05/17 10:16:55;;;;;;;3.83;2.00;;;;;;;;;;757820;180;911250;-63
2023/05/17 10:19:20;;;;;;;3.90;2.47;;;;;;;;;;756223;180;916591;-68
2023/05/17 10:21:47;;;;;;;4.63;2.60;;;;;;;;;;761278;180;919023;-68
2023/05/17 10:24:13;;;;;;;7.70;2.70;;;;;;;;;;760589;179;815886;-68
2023/05/17 10:26:39;;;;;;;8.70;2.13;;;;;;;;;;759804;180;813938;-64
2023/05/17 10:29:05;;;;;;;6.47;2.40;;;;;;;;;;755165;180;920516;-64
2023/05/17 10:31:32;;;;;;;4.60;2.73;;;;;;;;;;764149;180;894487;-64
2023/05/17 10:33:56;;;;;;;3.87;2.00;;;;;;;;;;757132;180;915887;-64
2023/05/17 10:36:22;;;;;;;4.93;2.00;;;;;;;;;;757125;180;918430;-69
2023/05/17 10:38:48;;;;;;;9.10;2.13;;;;;;;;;;761126;182;919071;-64
2023/05/17 10:41:14;;;;;;;5.03;2.40;;;;;;;;;;757676;180;918918;-68
2023/05/17 10:43:40;;;;;;;6.00;2.20;;;;;;;;;;757631;181;920462;-69
2023/05/17 10:46:06;;;;;;;5.93;1.73;;;;;;;;;;759909;180;919478;-64
2023/05/17 10:48:31;;;;;;;8.97;2.60;;;;;;;;;;758084;180;819244;-68
2023/05/17 10:50:57;;;;;;;5.93;2.60;;;;;;;;;;756999;180;918113;-69
2023/05/17 10:53:23;;;;;;;5.40;2.20;;;;;;;;;;756729;180;919038;-64
2023/05/17 10:55:51;;;;;;;7.90;2.80;;;;;;;;;;758462;183;901073;-64
2023/05/17 10:58:16;;;;;;;4.40;2.80;;;;;;;;;;756448;180;918031;-64
2023/05/17 11:00:42;;;;;;;4.97;3.05;;;;;;;;;;755293;183;918280;-64
2023/05/17 11:03:09;;;;;;;4.00;1.73;;;;;;;;;;762450;183;942826;-70
2023/05/17 11:05:35;;;;;;;5.97;2.67;;;;;;;;;;757903;181;1063609;-65
2023/05/17 11:08:08;;;;;;;8.10;3.70;;;;;;;;;;757645;183;897541;-64
2023/05/17 11:10:33;;;;;;;5.33;3.47;;;;;;;;;;755391;180;944919;-65
2023/05/17 11:12:59;;;;;;;7.23;3.57;;;;;;;;;;754824;185;917419;-70
2023/05/17 11:15:25;;;;;;;11.73;6.43;;;;;;;;;;757030;180;922199;-69
2023/05/17 11:17:52;;;;;;;6.90;3.40;;;;;;;;;;755480;182;901287;-65
2023/05/17 11:20:33;;;;;;;5.30;2.83;;;;;;;;;;760870;181;905418;-64
2023/05/17 11:22:59;;;;;;;9.03;3.23;;;;;;;;;;758009;183;853631;-64
2023/05/17 11:25:27;;;;;;;10.53;2.97;;;;;;;;;;756129;180;910471;-63
2023/05/17 11:27:53;;;;;;;6.07;3.10;;;;;;;;;;758657;180;817660;-69
2023/05/17 11:30:28;;;;;;;6.87;4.07;;;;;;;;;;761656;180;920925;-68
2023/05/17 11:33:01;;;;;;;5.93;3.10;;;;;;;;;;756946;185;919388;-69
2023/05/17 11:35:27;;;;;;;5.40;3.00;;;;;;;;;;758940;180;919190;-69
2023/05/17 11:37:53;;;;;;;8.50;3.35;;;;;;;;;;758664;181;816592;-69
2023/05/17 11:40:23;;;;;;;5.23;3.30;;;;;;;;;;758138;180;922315;-64
2023/05/17 11:42:50;;;;;;;7.27;3.10;;;;;;;;;;758056;185;919062;-63
2023/05/17 11:45:15;;;;;;;7.13;3.67;;;;;;;;;;757854;180;917738;-70
2023/05/17 11:47:41;;;;;;;4.60;2.90;;;;;;;;;;755740;181;921606;-63
2023/05/17 11:50:07;;;;;;;6.73;2.90;;;;;;;;;;762838;180;919261;-68
2023/05/17 11:52:32;;;;;;;5.13;2.37;;;;;;;;;;757166;180;921155;-63
2023/05/17 11:54:58;;;;;;;7.63;3.33;;;;;;;;;;758117;180;917487;-69
2023/05/17 11:57:29;;;;;;;6.37;3.17;;;;;;;;;;762773;180;810386;-63
2023/05/17 11:59:58;;;;;;;9.70;4.53;;;;;;;;;;757386;185;915751;-63
2023/05/17 12:02:26;;;;;;;4.53;2.63;;;;;;;;;;757350;180;919170;-69
2023/05/17 12:04:52;;;;;;;5.63;2.30;;;;;;;;;;757492;180;919696;-63
2023/05/17 12:07:18;;;;;;;7.40;2.57;;;;;;;;;;759832;181;916694;-63
2023/05/17 12:09:44;;;;;;;6.97;2.50;;;;;;;;;;757742;181;918922;-63
2023/05/17 12:12:09;;;;;;;6.33;3.20;;;;;;;;;;757417;180;919203;-63
2023/05/17 12:14:35;;;;;;;5.47;2.13;;;;;;;;;;756215;181;919349;-63
2023/05/17 12:17:01;;;;;;;9.77;3.77;;;;;;;;;;758521;184;922458;-64
2023/05/17 12:19:28;;;;;;;4.70;2.67;;;;;;;;;;755529;180;920337;-63
2023/05/17 12:21:53;;;;;;;4.77;2.93;;;;;;;;;;756387;180;919305;-63
2023/05/17 12:24:19;;;;;;;8.33;4.10;;;;;;;;;;760258;180;919492;-68
2023/05/17 12:26:45;;;;;;;6.27;3.10;;;;;;;;;;757172;180;922730;-69
2023/05/17 12:29:12;;;;;;;9.82;4.00;;;;;;;;;;757090;181;920871;-68
2023/05/17 12:31:37;;;;;;;10.90;5.83;;;;;;;;;;762324;180;817682;-69
2023/05/17 12:34:04;;;;;;;7.17;3.67;;;;;;;;;;757038;181;919257;-63
2023/05/17 12:36:30;;;;;;;7.17;4.00;;;;;;;;;;757324;180;941061;-63
2023/05/17 12:38:56;;;;;;;10.20;3.60;;;;;;;;;;755766;181;918828;-64
2023/05/17 12:41:22;;;;;;;8.77;3.57;;;;;;;;;;762790;181;915387;-64
2023/05/17 12:43:48;;;;;;;6.33;2.50;;;;;;;;;;756633;180;854876;-68
2023/05/17 12:46:13;;;;;;;5.00;3.20;;;;;;;;;;758625;179;918838;-62
2023/05/17 12:48:39;;;;;;;4.15;2.65;;;;;;;;;;764283;179;919411;-63
2023/05/17 12:51:20;;;;;;;7.37;4.07;;;;;;;;;;757574;180;938422;-63
2023/05/17 12:53:48;;;;;;;7.53;2.97;;;;;;;;;;758517;180;919170;-63
2023/05/17 12:56:14;;;;;;;6.13;2.03;;;;;;;;;;759644;180;918773;-69
2023/05/17 12:58:40;;;;;;;5.10;2.60;;;;;;;;;;761951;181;918986;-69
2023/05/17 13:01:08;;;;;;;9.67;4.90;;;;;;;;;;758648;180;815918;-64
2023/05/17 13:03:32;;;;;;;5.80;2.95;;;;;;;;;;758512;180;879662;-65
2023/05/17 13:06:01;;;;;;;6.53;3.70;;;;;;;;;;761509;180;949599;-64
2023/05/17 13:08:27;;;;;;;8.30;2.60;;;;;;;;;;759347;179;856198;-69
2023/05/17 13:10:53;;;;;;;7.87;3.17;;;;;;;;;;756159;180;1013603;-63
2023/05/17 13:13:19;;;;;;;10.63;4.90;;;;;;;;;;756044;180;912610;-68
2023/05/17 13:15:45;;;;;;;6.20;4.00;;;;;;;;;;761208;180;919411;-65
2023/05/17 13:18:12;;;;;;;8.97;3.97;;;;;;;;;;758650;180;920148;-65
2023/05/17 13:20:37;;;;;;;6.47;3.93;;;;;;;;;;758436;180;918977;-65
2023/05/17 13:23:03;;;;;;;5.70;3.35;;;;;;;;;;760430;183;932105;-69
2023/05/17 13:25:30;;;;;;;6.87;3.27;;;;;;;;;;757181;180;919188;-69
2023/05/17 13:27:55;;;;;;;10.00;5.27;;;;;;;;;;757713;180;919219;-65
2023/05/17 13:30:21;;;;;;;11.53;5.00;;;;;;;;;;758686;180;714077;-65
2023/05/17 13:32:46;;;;;;;9.43;4.07;;;;;;;;;;757206;183;953895;-69
2023/05/17 13:35:12;;;;;;;5.37;3.77;;;;;;;;;;754754;180;912457;-68
2023/05/17 13:37:38;;;;;;;7.47;3.73;;;;;;;;;;756125;180;918903;-69
2023/05/17 13:40:05;;;;;;;8.57;4.50;;;;;;;;;;761458;180;963252;-65
2023/05/17 13:42:31;;;;;;;6.75;4.05;;;;;;;;;;757593;180;915181;-68
2023/05/17 13:44:56;;;;;;;9.27;5.70;;;;;;;;;;756846;180;919233;-64
2023/05/17 13:47:22;;;;;;;8.77;5.23;;;;;;;;;;761664;180;918995;-64
2023/05/17 13:49:48;;;;;;;8.87;5.13;;;;;;;;;;757009;180;918984;-64
2023/05/17 13:52:17;;;;;;;10.73;5.80;;;;;;;;;;758957;180;819076;-65
2023/05/17 13:54:40;;;;;;;9.73;4.67;;;;;;;;;;760708;180;914391;-70
2023/05/17 13:57:06;;;;;;;8.68;4.82;;;;;;;;;;757960;179;913986;-65
2023/05/17 13:59:31;;;;;;;12.00;5.60;;;;;;;;;;758584;180;921612;-64
2023/05/17 14:01:57;;;;;;;8.30;5.07;;;;;;;;;;757285;180;969096;-69
2023/05/17 14:04:23;;;;;;;7.67;4.40;;;;;;;;;;763019;181;914643;-70
2023/05/17 14:06:50;;;;;;;8.95;4.12;;;;;;;;;;760396;180;902113;-65
2023/05/17 14:09:15;;;;;;;13.70;7.80;;;;;;;;;;758512;180;822840;-64
2023/05/17 14:11:41;;;;;;;12.23;7.23;;;;;;;;;;762618;180;917884;-65
2023/05/17 14:14:06;;;;;;;15.30;8.20;;;;;;;;;;759074;180;920403;-64
2023/05/17 14:16:32;;;;;;;17.27;7.87;;;;;;;;;;759444;180;899535;-64
2023/05/17 14:18:58;;;;;;;9.50;4.87;;;;;;;;;;762700;180;809500;-72
2023/05/17 14:21:24;;;;;;;15.40;6.80;;;;;;;;;;756112;180;912452;-70